Time;durP1;ratioP1;P1;durP2;ratioP2;P2;SDS_P1;SDS_P2;PMS_P1;PMS_P2;Temp;Humidity;BMP_temperature;BMP_pressure;BME280_temperature;BME280_humidity;BME280_pressure;Samples;Min_cycle;Max_cycle;Signal;HPM_P1;HPM_P2
2022/08/31 00:05:12;;;;;;;4.63;1.90;;;15.90;1.00;;;;;;5002101;28;20462;-83
2022/08/31 00:07:39;;;;;;;5.13;1.60;;;15.80;1.00;;;;;;4997690;28;20474;-83
2022/08/31 00:10:13;;;;;;;4.00;1.50;;;15.80;1.00;;;;;;4999026;28;20426;-82
2022/08/31 00:12:42;;;;;;;4.63;1.93;;;15.80;1.00;;;;;;5002209;28;20438;-82
2022/08/31 00:15:11;;;;;;;4.40;1.83;;;15.80;1.00;;;;;;5001679;28;20483;-83
2022/08/31 00:17:38;;;;;;;5.00;2.17;;;15.70;1.00;;;;;;4999623;28;20986;-82
2022/08/31 00:20:06;;;;;;;4.40;2.03;;;15.70;1.00;;;;;;5000478;28;20498;-83
2022/08/31 00:22:33;;;;;;;5.40;2.00;;;15.70;1.00;;;;;;4999381;28;20419;-83
2022/08/31 00:25:00;;;;;;;5.33;1.73;;;15.70;1.00;;;;;;5001684;28;20442;-83
2022/08/31 00:27:26;;;;;;;4.30;1.70;;;15.70;1.00;;;;;;4999997;28;21161;-82
2022/08/31 00:29:55;;;;;;;4.43;1.70;;;15.60;1.00;;;;;;4999497;28;20475;-83
2022/08/31 00:32:21;;;;;;;4.60;1.47;;;15.60;1.00;;;;;;4997832;28;20433;-83
2022/08/31 00:34:48;;;;;;;4.00;1.70;;;15.60;1.00;;;;;;4991330;28;20463;-83
2022/08/31 00:37:15;;;;;;;5.03;2.30;;;15.60;1.00;;;;;;4999346;28;20471;-83
2022/08/31 00:39:42;;;;;;;5.10;1.93;;;15.50;1.00;;;;;;4999748;28;20451;-83
2022/08/31 00:42:11;;;;;;;5.47;2.03;;;15.50;1.00;;;;;;4998381;28;20467;-83
2022/08/31 00:44:38;;;;;;;4.20;1.53;;;15.50;1.00;;;;;;4998062;28;20467;-83
2022/08/31 00:47:07;;;;;;;4.50;1.80;;;15.50;1.00;;;;;;4997909;28;20432;-83
2022/08/31 00:49:37;;;;;;;5.10;1.97;;;15.40;1.00;;;;;;4983485;28;20427;-82
2022/08/31 00:52:09;;;;;;;4.40;1.90;;;15.40;1.00;;;;;;5000096;28;20459;-83
2022/08/31 00:54:41;;;;;;;5.33;1.87;;;15.40;1.00;;;;;;4994597;28;20597;-83
2022/08/31 00:57:10;;;;;;;4.73;1.80;;;15.40;1.00;;;;;;4996142;28;21194;-83
2022/08/31 00:59:38;;;;;;;6.53;1.90;;;15.40;1.00;;;;;;4996254;28;20517;-83
2022/08/31 01:02:06;;;;;;;4.93;2.10;;;15.30;1.00;;;;;;4999195;28;21175;-83
2022/08/31 01:04:33;;;;;;;6.13;1.60;;;15.30;1.00;;;;;;4997742;28;20467;-82
2022/08/31 01:07:01;;;;;;;5.53;2.00;;;15.40;1.00;;;;;;5000218;28;20452;-82
2022/08/31 01:09:32;;;;;;;4.20;1.77;;;15.30;1.00;;;;;;4991568;28;20454;-82
2022/08/31 01:11:59;;;;;;;7.03;1.90;;;15.30;1.00;;;;;;4995712;28;20495;-84
2022/08/31 01:14:26;;;;;;;6.00;1.90;;;15.30;1.00;;;;;;4998094;28;21249;-82
2022/08/31 01:16:55;;;;;;;7.77;2.40;;;15.30;1.00;;;;;;4993561;28;21133;-84
2022/08/31 01:19:30;;;;;;;4.70;1.90;;;15.30;1.00;;;;;;4995023;28;20424;-83
2022/08/31 01:22:04;;;;;;;4.83;1.90;;;15.20;1.00;;;;;;4977522;28;20483;-84
2022/08/31 01:24:33;;;;;;;4.57;1.90;;;15.20;1.00;;;;;;4993735;28;20552;-83
2022/08/31 01:27:03;;;;;;;4.43;1.70;;;15.20;1.00;;;;;;4994722;28;20522;-83
2022/08/31 01:29:30;;;;;;;5.93;2.10;;;15.20;1.00;;;;;;4995338;28;20489;-83
2022/08/31 01:31:57;;;;;;;8.30;2.13;;;15.20;1.00;;;;;;5002612;28;20914;-83
2022/08/31 01:34:24;;;;;;;4.73;1.67;;;15.20;1.00;;;;;;4993219;28;20434;-83
2022/08/31 01:36:52;;;;;;;7.20;2.13;;;15.10;1.00;;;;;;4994788;28;20834;-83
2022/08/31 01:39:20;;;;;;;5.87;2.10;;;15.10;1.00;;;;;;4996934;28;20466;-83
2022/08/31 01:41:51;;;;;;;4.63;2.00;;;15.10;1.00;;;;;;4995567;28;20467;-84
2022/08/31 01:44:21;;;;;;;4.87;2.07;;;15.10;1.00;;;;;;4996885;28;20517;-83
2022/08/31 01:46:48;;;;;;;4.97;2.20;;;15.10;1.00;;;;;;4996259;28;20483;-83
2022/08/31 01:49:16;;;;;;;5.50;2.00;;;15.10;1.00;;;;;;5000500;28;20933;-83
2022/08/31 01:51:45;;;;;;;4.37;1.60;;;15.10;1.00;;;;;;5003067;28;20495;-83
2022/08/31 01:54:12;;;;;;;4.60;1.70;;;15.20;1.00;;;;;;5004331;28;20477;-83
2022/08/31 01:56:41;;;;;;;6.23;1.80;;;15.20;1.00;;;;;;4994205;28;20463;-83
2022/08/31 01:59:12;;;;;;;5.30;2.57;;;15.30;1.00;;;;;;4998626;28;20476;-83
2022/08/31 02:01:42;;;;;;;5.63;1.83;;;15.40;1.00;;;;;;5001081;28;20570;-81
2022/08/31 02:04:11;;;;;;;4.47;2.07;;;15.50;1.00;;;;;;4995609;28;21188;-82
2022/08/31 02:06:38;;;;;;;4.93;1.90;;;15.60;1.00;;;;;;4997308;28;20471;-82
2022/08/31 02:09:06;;;;;;;5.23;2.93;;;15.60;1.00;;;;;;5005080;28;20528;-83
2022/08/31 02:11:33;;;;;;;4.80;1.70;;;15.70;1.00;;;;;;5002833;28;20538;-83
2022/08/31 02:14:01;;;;;;;5.73;1.97;;;15.80;1.00;;;;;;5000726;28;20474;-84
2022/08/31 02:16:31;;;;;;;5.40;2.20;;;15.80;1.00;;;;;;5002386;28;20423;-82
2022/08/31 02:18:58;;;;;;;4.50;2.27;;;15.90;1.00;;;;;;5004725;28;20517;-83
2022/08/31 02:21:25;;;;;;;5.50;2.40;;;15.90;1.00;;;;;;5004488;28;20415;-84
2022/08/31 02:23:52;;;;;;;4.70;1.80;;;15.90;1.00;;;;;;4998497;28;21211;-83
2022/08/31 02:26:22;;;;;;;5.00;1.60;;;16.00;1.00;;;;;;5002288;28;20455;-83
2022/08/31 02:28:49;;;;;;;4.57;1.97;;;16.00;1.00;;;;;;5003879;28;20461;-84
2022/08/31 02:31:21;;;;;;;7.40;2.33;;;15.90;1.00;;;;;;5008189;28;20429;-83
2022/08/31 02:33:49;;;;;;;5.63;2.00;;;16.00;1.00;;;;;;4995952;28;20510;-80
2022/08/31 02:36:19;;;;;;;4.60;1.93;;;16.00;1.00;;;;;;5002718;28;20429;-84
2022/08/31 02:38:47;;;;;;;5.23;1.83;;;16.00;1.00;;;;;;4999080;28;20466;-82
2022/08/31 02:41:16;;;;;;;4.60;2.20;;;16.00;1.00;;;;;;5003396;28;21285;-82
2022/08/31 02:43:43;;;;;;;5.67;2.03;;;16.00;1.00;;;;;;4999790;28;20450;-82
2022/08/31 02:46:10;;;;;;;6.00;2.70;;;16.00;1.00;;;;;;4999414;28;20615;-83
2022/08/31 02:48:37;;;;;;;5.03;2.10;;;16.10;1.00;;;;;;4999503;28;20545;-82
2022/08/31 02:51:11;;;;;;;5.50;1.90;;;16.10;1.00;;;;;;5000654;28;20480;-83
2022/08/31 02:53:39;;;;;;;7.13;2.17;;;16.00;1.00;;;;;;4995902;28;20474;-82
2022/08/31 02:56:06;;;;;;;5.50;2.40;;;16.00;1.00;;;;;;5003190;28;20447;-83
2022/08/31 02:58:33;;;;;;;4.67;2.07;;;16.10;1.00;;;;;;4999503;28;20982;-82
2022/08/31 03:01:00;;;;;;;6.00;2.57;;;16.10;1.00;;;;;;5002756;28;21259;-79
2022/08/31 03:03:27;;;;;;;5.07;2.53;;;16.20;1.00;;;;;;4989773;28;20489;-78
2022/08/31 03:05:54;;;;;;;4.33;1.83;;;16.20;1.00;;;;;;4993829;28;20509;-79
2022/08/31 03:08:25;;;;;;;7.87;2.00;;;16.20;1.00;;;;;;4997219;28;20559;-78
2022/08/31 03:10:52;;;;;;;6.23;2.40;;;16.20;1.00;;;;;;4990549;28;22048;-79
2022/08/31 03:13:19;;;;;;;4.37;1.80;;;16.30;1.00;;;;;;4989180;28;20471;-79
2022/08/31 03:15:56;;;;;;;;;;;;;;;;;;;;;
2022/08/31 03:18:23;;;;;;;4.23;1.90;;;16.30;1.00;;;;;;4992370;28;39438;-80
2022/08/31 03:20:50;;;;;;;6.50;2.20;;;16.30;1.00;;;;;;4995908;28;20415;-79
2022/08/31 03:23:17;;;;;;;3.87;1.90;;;16.30;1.00;;;;;;4991521;28;20459;-79
2022/08/31 03:25:45;;;;;;;5.47;2.30;;;16.30;1.00;;;;;;4998214;28;20887;-81
2022/08/31 03:28:12;;;;;;;5.83;2.37;;;16.20;1.00;;;;;;4994176;28;21028;-79
2022/08/31 03:30:40;;;;;;;4.70;2.10;;;16.20;1.00;;;;;;4997207;28;20474;-80
2022/08/31 03:33:08;;;;;;;6.43;2.07;;;16.10;1.00;;;;;;4994487;28;21292;-79
2022/08/31 03:35:36;;;;;;;6.20;2.50;;;16.00;1.00;;;;;;4997130;28;21011;-79
2022/08/31 03:38:04;;;;;;;5.03;2.30;;;16.00;1.00;;;;;;4993549;28;21018;-81
2022/08/31 03:40:31;;;;;;;6.50;2.33;;;15.90;1.00;;;;;;4995454;28;20986;-79
2022/08/31 03:43:00;;;;;;;8.53;4.10;;;15.90;1.00;;;;;;4999127;28;21974;-79
2022/08/31 03:45:30;;;;;;;4.60;1.73;;;15.80;1.00;;;;;;4999112;28;21269;-81
2022/08/31 03:47:59;;;;;;;5.87;2.10;;;15.70;1.00;;;;;;4998041;28;20462;-80
2022/08/31 03:50:26;;;;;;;5.20;2.33;;;15.70;1.00;;;;;;4998883;28;20466;-82
2022/08/31 03:52:53;;;;;;;4.80;2.40;;;15.60;1.00;;;;;;4991781;28;20481;-80
2022/08/31 03:55:21;;;;;;;4.80;2.50;;;15.50;1.00;;;;;;4998074;28;20469;-79
2022/08/31 03:57:50;;;;;;;4.73;2.77;;;15.40;1.00;;;;;;4991443;28;20478;-79
2022/08/31 04:00:19;;;;;;;6.10;3.00;;;15.40;1.00;;;;;;4995458;28;20430;-79
2022/08/31 04:02:45;;;;;;;6.13;2.50;;;15.30;1.00;;;;;;4992071;28;20515;-79
2022/08/31 04:05:13;;;;;;;5.67;2.63;;;15.40;1.00;;;;;;4988930;28;20914;-82
2022/08/31 04:07:40;;;;;;;9.07;3.10;;;15.40;1.00;;;;;;4989461;28;20435;-80
2022/08/31 04:10:08;;;;;;;6.30;2.90;;;15.40;1.00;;;;;;4989759;28;20916;-80
2022/08/31 04:12:34;;;;;;;7.73;3.83;;;15.50;1.00;;;;;;4986388;28;20485;-80
2022/08/31 04:15:01;;;;;;;6.37;2.60;;;15.40;1.00;;;;;;4995927;28;20540;-78
2022/08/31 04:17:32;;;;;;;7.13;5.00;;;15.50;1.00;;;;;;4992777;28;20482;-79
2022/08/31 04:19:59;;;;;;;6.40;3.10;;;15.50;1.00;;;;;;4997403;28;20459;-78
2022/08/31 04:22:26;;;;;;;5.80;2.60;;;15.50;1.00;;;;;;4995678;28;20479;-79
2022/08/31 04:24:53;;;;;;;6.57;2.80;;;15.50;1.00;;;;;;4993104;28;21260;-79
2022/08/31 04:27:20;;;;;;;5.70;2.30;;;15.50;1.00;;;;;;4993991;28;20469;-77
2022/08/31 04:29:47;;;;;;;6.40;2.90;;;15.40;1.00;;;;;;4991148;28;20426;-78
2022/08/31 04:32:13;;;;;;;8.80;3.90;;;15.40;1.00;;;;;;4993450;28;20577;-78
2022/08/31 04:34:41;;;;;;;7.00;3.27;;;15.40;1.00;;;;;;4990267;28;20468;-80
2022/08/31 04:37:13;;;;;;;6.60;2.73;;;15.40;1.00;;;;;;4990014;28;20486;-78
2022/08/31 04:39:41;;;;;;;4.83;2.50;;;15.30;1.00;;;;;;4992640;28;20434;-79
2022/08/31 04:42:10;;;;;;;6.37;2.80;;;15.30;1.00;;;;;;4991055;28;20471;-73
2022/08/31 04:44:38;;;;;;;8.70;3.30;;;15.30;1.00;;;;;;4990859;28;21073;-75
2022/08/31 04:47:05;;;;;;;6.20;2.40;;;15.40;1.00;;;;;;4987222;28;20458;-79
2022/08/31 04:49:32;;;;;;;5.20;2.67;;;15.60;1.00;;;;;;4990863;28;20469;-75
2022/08/31 04:52:00;;;;;;;10.33;3.47;;;15.80;1.00;;;;;;4991540;28;20475;-75
2022/08/31 04:54:28;;;;;;;6.53;4.80;;;15.90;1.00;;;;;;4990734;28;20457;-75
2022/08/31 04:56:55;;;;;;;8.63;3.27;;;16.10;1.00;;;;;;4993524;28;20465;-75
2022/08/31 04:59:24;;;;;;;5.73;2.50;;;16.20;1.00;;;;;;4994355;28;20986;-75
2022/08/31 05:01:51;;;;;;;5.57;2.10;;;16.30;1.00;;;;;;4989205;28;20475;-75
2022/08/31 05:04:22;;;;;;;6.90;2.70;;;16.30;1.00;;;;;;4988049;28;20484;-71
2022/08/31 05:06:50;;;;;;;6.20;1.97;;;16.30;1.00;;;;;;4982955;28;20478;-77
2022/08/31 05:09:20;;;;;;;5.63;2.57;;;16.30;1.00;;;;;;4991403;28;20478;-80
2022/08/31 05:11:48;;;;;;;5.13;2.63;;;16.30;1.00;;;;;;4994268;28;20471;-78
2022/08/31 05:14:15;;;;;;;7.97;3.50;;;16.30;1.00;;;;;;4994161;28;20462;-75
2022/08/31 05:16:43;;;;;;;5.50;2.80;;;16.30;1.00;;;;;;4988209;28;20463;-75
2022/08/31 05:19:10;;;;;;;7.53;2.80;;;16.30;1.00;;;;;;4984919;28;20443;-75
2022/08/31 05:21:39;;;;;;;5.50;2.70;;;16.40;1.00;;;;;;4982511;28;20496;-75
2022/08/31 05:24:08;;;;;;;8.03;2.87;;;16.40;1.00;;;;;;4984382;28;21586;-75
2022/08/31 05:26:39;;;;;;;11.07;3.10;;;16.50;1.00;;;;;;4984005;28;20462;-76
2022/08/31 05:29:09;;;;;;;6.50;3.03;;;16.40;1.00;;;;;;4982367;28;20955;-73
2022/08/31 05:31:36;;;;;;;6.20;2.90;;;16.40;1.00;;;;;;4987274;28;20459;-73
2022/08/31 05:34:04;;;;;;;7.60;3.30;;;16.40;1.00;;;;;;4985345;28;20471;-74
2022/08/31 05:36:32;;;;;;;7.87;3.03;;;16.50;1.00;;;;;;4985879;28;20477;-75
2022/08/31 05:38:59;;;;;;;6.23;2.50;;;16.50;1.00;;;;;;4983815;28;21232;-75
2022/08/31 05:41:28;;;;;;;6.77;2.90;;;16.60;1.00;;;;;;4986609;28;20493;-72
2022/08/31 05:43:56;;;;;;;8.00;3.13;;;16.60;1.00;;;;;;4987752;28;20502;-76
2022/08/31 05:46:23;;;;;;;8.20;4.30;;;16.70;1.00;;;;;;4985185;28;21292;-73
2022/08/31 05:48:50;;;;;;;6.83;3.83;;;16.70;1.00;;;;;;4984935;28;20462;-74
2022/08/31 05:51:18;;;;;;;5.50;2.70;;;16.70;1.00;;;;;;4983951;28;20565;-75
2022/08/31 05:53:44;;;;;;;8.87;3.23;;;16.80;1.00;;;;;;4977519;28;20459;-74
2022/08/31 05:56:13;;;;;;;4.37;1.87;;;16.90;1.00;;;;;;4990409;28;20458;-72
2022/08/31 05:58:42;;;;;;;7.67;2.63;;;16.90;1.00;;;;;;4986611;28;20546;-75
2022/08/31 06:01:15;;;;;;;3.70;1.30;;;17.00;1.00;;;;;;4991375;28;20478;-75
2022/08/31 06:03:42;;;;;;;6.07;2.10;;;17.00;1.00;;;;;;4990716;28;20431;-83
2022/08/31 06:06:13;;;;;;;7.17;2.27;;;17.10;1.00;;;;;;4997744;28;20491;-85
2022/08/31 06:08:42;;;;;;;5.67;1.80;;;17.00;1.00;;;;;;4992513;28;20481;-83
2022/08/31 06:11:16;;;;;;;5.37;2.10;;;16.90;1.00;;;;;;4994466;28;20604;-81
2022/08/31 06:13:43;;;;;;;8.97;3.00;;;16.90;1.00;;;;;;4997753;28;20450;-81
2022/08/31 06:16:13;;;;;;;5.83;1.70;;;16.90;1.00;;;;;;4994032;28;20506;-82
2022/08/31 06:18:48;;;;;;;5.07;1.90;;;17.00;1.00;;;;;;4994693;28;20487;-84
2022/08/31 06:21:17;;;;;;;5.80;2.00;;;16.90;1.00;;;;;;4997184;28;21069;-83
2022/08/31 06:23:44;;;;;;;6.00;2.03;;;17.00;1.00;;;;;;4994226;28;20470;-81
2022/08/31 06:26:19;;;;;;;7.37;1.83;;;17.00;1.00;;;;;;4998520;28;20459;-81
2022/08/31 06:28:56;;;;;;;5.47;2.10;;;17.00;1.00;;;;;;4994479;28;20517;-80
2022/08/31 06:31:26;;;;;;;6.33;1.77;;;17.00;1.00;;;;;;5005363;28;20644;-82
2022/08/31 06:33:56;;;;;;;9.63;5.50;;;17.10;1.00;;;;;;4992420;28;20986;-81
2022/08/31 06:36:25;;;;;;;5.50;1.60;;;17.20;1.00;;;;;;4999735;28;20455;-83
2022/08/31 06:38:52;;;;;;;7.03;1.90;;;17.10;1.00;;;;;;4993269;28;21412;-82
2022/08/31 06:41:23;;;;;;;5.63;1.97;;;17.20;1.00;;;;;;4994042;28;20446;-81
2022/08/31 06:43:53;;;;;;;7.13;2.33;;;17.20;1.00;;;;;;4992552;28;20439;-82
2022/08/31 06:46:23;;;;;;;4.53;1.90;;;17.30;1.00;;;;;;4990425;28;20439;-87
2022/08/31 06:48:54;;;;;;;7.87;1.63;;;17.30;1.00;;;;;;4994371;28;20459;-83
2022/08/31 06:51:21;;;;;;;5.30;2.03;;;17.30;1.00;;;;;;4995656;28;20538;-83
2022/08/31 06:53:51;;;;;;;4.43;1.10;;;17.40;1.00;;;;;;4994992;28;21105;-85
2022/08/31 06:56:19;;;;;;;5.40;1.53;;;17.50;1.00;;;;;;4998251;28;20518;-86
2022/08/31 06:58:47;;;;;;;4.37;1.43;;;17.50;1.00;;;;;;4997493;28;20827;-88
2022/08/31 07:01:15;;;;;;;7.83;1.60;;;17.60;1.00;;;;;;4998888;28;21385;-88
2022/08/31 07:03:44;;;;;;;8.30;1.80;;;17.70;1.00;;;;;;4994421;28;20619;-86
2022/08/31 07:06:16;;;;;;;5.47;1.83;;;17.70;1.00;;;;;;4994396;28;20486;-87
2022/08/31 07:08:45;;;;;;;6.20;1.50;;;17.70;1.00;;;;;;4995062;28;20471;-87
2022/08/31 07:11:18;;;;;;;5.90;1.63;;;17.80;1.00;;;;;;4991392;28;20458;-88
2022/08/31 07:13:45;;;;;;;7.17;1.77;;;17.80;1.00;;;;;;4996213;28;20447;-88
2022/08/31 07:16:16;;;;;;;5.60;1.80;;;17.90;1.00;;;;;;4993522;28;20471;-88
2022/08/31 07:18:45;;;;;;;6.13;1.43;;;18.10;1.00;;;;;;4989135;28;20487;-85
2022/08/31 07:21:16;;;;;;;6.03;1.77;;;18.20;1.00;;;;;;4992196;28;20471;-85
2022/08/31 07:23:44;;;;;;;6.23;2.20;;;18.40;1.00;;;;;;4992441;28;20958;-85
2022/08/31 07:26:13;;;;;;;4.23;1.43;;;18.40;1.00;;;;;;5001063;28;20468;-83
2022/08/31 07:28:42;;;;;;;3.87;1.50;;;18.60;1.00;;;;;;4994680;28;21089;-85
2022/08/31 07:31:14;;;;;;;5.70;1.33;;;18.70;1.00;;;;;;4993671;28;20440;-86
2022/08/31 07:33:42;;;;;;;4.57;1.70;;;18.70;1.00;;;;;;4992051;28;20809;-86
2022/08/31 07:36:12;;;;;;;4.63;2.00;;;18.90;1.00;;;;;;4994699;28;20450;-85
2022/08/31 07:44:14;;;;;;;4.77;1.10;;;19.40;1.00;;;;;;4991740;28;20455;-84
2022/08/31 07:46:41;;;;;;;8.50;1.97;;;19.60;1.00;;;;;;4992000;28;20488;-84
2022/08/31 07:49:11;;;;;;;8.87;2.40;;;19.80;1.00;;;;;;4991835;28;20468;-85
2022/08/31 07:51:42;;;;;;;6.37;1.63;;;20.00;1.00;;;;;;4991944;28;20489;-83
2022/08/31 07:54:22;;;;;;;4.50;1.20;;;20.00;1.00;;;;;;4993167;28;20479;-85
2022/08/31 07:57:03;;;;;;;5.50;2.00;;;20.00;1.00;;;;;;4995222;28;20889;-85
2022/08/31 08:00:07;;;;;;;6.60;1.77;;;20.10;1.00;;;;;;4958974;28;20520;-85
2022/08/31 08:02:37;;;;;;;4.80;1.07;;;20.20;1.00;;;;;;4993636;28;21002;-85
2022/08/31 08:05:09;;;;;;;6.00;1.40;;;20.20;1.00;;;;;;4990754;28;20490;-85
2022/08/31 08:07:39;;;;;;;6.37;1.40;;;20.30;1.00;;;;;;4995764;28;20573;-84
2022/08/31 08:10:13;;;;;;;7.30;3.03;;;20.40;1.00;;;;;;4997371;28;20467;-83
2022/08/31 08:12:40;;;;;;;8.60;4.53;;;20.50;1.00;;;;;;4988888;28;20543;-85
2022/08/31 08:15:07;;;;;;;4.93;1.20;;;20.50;1.00;;;;;;4988873;28;20467;-84
2022/08/31 08:17:34;;;;;;;5.20;1.30;;;20.50;1.00;;;;;;4991181;28;20462;-85
2022/08/31 08:20:06;;;;;;;5.37;1.27;;;20.60;1.00;;;;;;4997901;28;20572;-86
2022/08/31 08:22:42;;;;;;;6.90;1.83;;;20.70;1.00;;;;;;4996519;28;20478;-86
2022/08/31 08:25:14;;;;;;;6.83;1.17;;;20.70;1.00;;;;;;5002169;28;20486;-86
2022/08/31 08:27:41;;;;;;;5.43;1.67;;;20.80;1.00;;;;;;4988211;28;20475;-87
2022/08/31 08:30:14;;;;;;;5.17;1.10;;;21.00;1.00;;;;;;4991676;28;20437;-85
2022/08/31 08:32:43;;;;;;;6.50;1.20;;;21.10;1.00;;;;;;4993648;28;20446;-86
2022/08/31 08:35:12;;;;;;;11.93;1.73;;;21.10;1.00;;;;;;4988744;28;20549;-83
2022/08/31 08:37:40;;;;;;;6.13;1.40;;;21.20;1.00;;;;;;4989102;28;20490;-85
2022/08/31 08:45:33;;;;;;;8.40;1.30;;;21.40;1.00;;;;;;4990438;28;20463;-93
2022/08/31 08:48:12;;;;;;;6.47;1.33;;;21.40;1.00;;;;;;4966449;28;20465;-91
2022/08/31 08:54:25;;;;;;;;;;;;;;;;;;;;;
2022/08/31 08:57:07;;;;;;;7.43;1.47;;;21.70;1.00;;;;;;4982305;28;50074;-93
2022/08/31 09:00:06;;;;;;;5.30;1.20;;;21.80;1.00;;;;;;4996939;28;20525;-93
2022/08/31 09:09:35;;;;;;;6.87;1.17;;;22.10;1.00;;;;;;5001917;28;20999;-90
2022/08/31 09:12:29;;;;;;;5.10;1.00;;;22.20;1.00;;;;;;4932874;28;20441;-93
2022/08/31 09:22:01;;;;;;;6.83;1.60;;;22.80;1.00;;;;;;4974542;28;20454;-92
2022/08/31 09:24:34;;;;;;;7.97;2.00;;;23.10;1.00;;;;;;4993609;28;20407;-93
2022/08/31 09:27:44;;;;;;;5.30;1.20;;;23.60;1.00;;;;;;4995572;28;20418;-91
2022/08/31 09:33:57;;;;;;;8.00;1.73;;;24.80;1.00;;;;;;4994076;28;21333;-92
2022/08/31 09:37:21;;;;;;;8.70;2.30;;;25.10;1.00;;;;;;5004158;28;20925;-94
2022/08/31 09:40:04;;;;;;;7.40;1.87;;;26.70;1.00;;;;;;5002213;28;20418;-92
2022/08/31 09:43:07;;;;;;;7.43;1.60;;;28.50;1.00;;;;;;4999764;28;20489;-95
2022/08/31 09:46:16;;;;;;;4.90;0.83;;;29.80;1.00;;;;;;4927928;28;20429;-94
2022/08/31 09:49:19;;;;;;;;;;;;;;;;;;;;;
2022/08/31 09:55:23;;;;;;;6.10;1.07;;;26.50;1.00;;;;;;5036993;23;20480;-92
2022/08/31 09:58:10;;;;;;;7.20;1.50;;;25.90;1.00;;;;;;5019073;28;20430;-91
2022/08/31 10:00:43;;;;;;;5.80;1.40;;;25.30;1.00;;;;;;5011826;28;20437;-91
2022/08/31 10:03:23;;;;;;;7.17;2.00;;;25.20;1.00;;;;;;4990529;28;20486;-90
2022/08/31 10:05:56;;;;;;;5.07;1.10;;;25.10;1.00;;;;;;5003095;28;21351;-90
2022/08/31 10:09:02;;;;;;;8.37;2.03;;;24.90;1.00;;;;;;5002650;28;20458;-88
2022/08/31 10:12:06;;;;;;;;;;;;;;;;;;;;;
2022/08/31 10:14:54;;;;;;;6.17;1.80;;;25.30;1.00;;;;;;4999971;28;38683;-88
2022/08/31 10:17:56;;;;;;;9.80;1.70;;;25.30;1.00;;;;;;5001006;28;20525;-88
2022/08/31 10:20:30;;;;;;;5.20;1.23;;;26.20;1.00;;;;;;4999077;28;20485;-83
2022/08/31 10:23:07;;;;;;;6.40;1.60;;;26.20;1.00;;;;;;5006312;28;20898;-81
2022/08/31 10:25:41;;;;;;;7.90;1.80;;;25.80;1.00;;;;;;4998994;28;20462;-81
2022/08/31 10:28:18;;;;;;;5.70;1.50;;;25.40;1.00;;;;;;4995973;28;20480;-81
2022/08/31 10:30:54;;;;;;;7.43;1.40;;;25.10;1.00;;;;;;4997106;28;20511;-82
2022/08/31 10:35:01;;;;;;;5.57;1.43;;;25.10;1.00;;;;;;5006100;28;20547;-84
2022/08/31 10:36:16;;;;;;;5.43;0.87;;;26.30;1.00;;;;;;4995228;28;20909;-82
2022/08/31 10:38:49;;;;;;;5.20;1.20;;;26.30;1.00;;;;;;4998825;28;20482;-83
2022/08/31 10:41:27;;;;;;;7.73;1.70;;;26.50;1.00;;;;;;4993902;28;20538;-82
2022/08/31 10:44:01;;;;;;;6.77;1.73;;;28.00;1.00;;;;;;4997905;28;20458;-82
2022/08/31 10:46:33;;;;;;;6.10;1.30;;;28.70;1.00;;;;;;4995674;28;20463;-82
2022/08/31 10:49:03;;;;;;;6.40;1.20;;;28.80;1.00;;;;;;5003255;28;20466;-79
2022/08/31 10:51:45;;;;;;;6.00;1.93;;;27.60;1.00;;;;;;4993908;28;20553;-80
2022/08/31 10:54:27;;;;;;;8.10;3.43;;;26.70;1.00;;;;;;5000799;28;20494;-80
2022/08/31 10:57:07;;;;;;;8.23;2.37;;;26.00;1.00;;;;;;5018641;28;20450;-80
2022/08/31 10:59:41;;;;;;;6.20;1.20;;;25.50;1.00;;;;;;5012444;28;20479;-82
2022/08/31 11:02:35;;;;;;;9.00;3.03;;;26.30;1.00;;;;;;5018480;28;20458;-80
2022/08/31 11:05:27;;;;;;;6.77;1.23;;;26.70;1.00;;;;;;5018636;28;20430;-80
2022/08/31 11:08:02;;;;;;;7.07;1.23;;;26.60;1.00;;;;;;5020831;28;20517;-82
2022/08/31 11:10:44;;;;;;;5.60;1.37;;;26.00;1.00;;;;;;5012644;28;20469;-82
2022/08/31 11:13:25;;;;;;;6.60;1.57;;;25.50;1.00;;;;;;5014304;28;20474;-79
2022/08/31 11:16:15;;;;;;;5.20;1.17;;;25.30;1.00;;;;;;5009246;28;20486;-81
2022/08/31 11:18:56;;;;;;;6.83;1.93;;;25.10;1.00;;;;;;5020010;28;20655;-81
2022/08/31 11:21:44;;;;;;;7.13;1.40;;;24.70;1.00;;;;;;5016858;28;20476;-81
2022/08/31 11:24:37;;;;;;;7.57;1.60;;;24.90;1.00;;;;;;5017577;28;20461;-82
2022/08/31 11:27:10;;;;;;;5.40;1.17;;;24.60;1.00;;;;;;5010865;28;20468;-80
2022/08/31 11:29:45;;;;;;;7.40;1.87;;;24.60;1.00;;;;;;5013818;28;20469;-80
2022/08/31 11:32:25;;;;;;;6.80;1.77;;;24.90;1.00;;;;;;5024648;28;20947;-81
2022/08/31 11:34:57;;;;;;;5.90;1.40;;;24.90;1.00;;;;;;5017573;28;20456;-82
2022/08/31 11:37:54;;;;;;;6.70;1.80;;;25.70;1.00;;;;;;5014667;28;20489;-81
2022/08/31 11:41:10;;;;;;;7.23;1.40;;;25.90;1.00;;;;;;5011795;28;20446;-81
2022/08/31 11:43:50;;;;;;;6.10;1.50;;;25.40;1.00;;;;;;5016155;28;20486;-82
2022/08/31 11:46:59;;;;;;;6.30;1.77;;;25.80;1.00;;;;;;5014585;28;20473;-81
2022/08/31 11:49:47;;;;;;;7.63;1.47;;;28.40;1.00;;;;;;5009370;28;20460;-82
2022/08/31 11:52:34;;;;;;;6.33;1.90;;;31.10;1.00;;;;;;5014519;28;20462;-81
2022/08/31 11:55:13;;;;;;;5.60;2.17;;;33.00;1.00;;;;;;5004960;28;21113;-81
2022/08/31 11:58:24;;;;;;;6.40;2.00;;;32.50;1.00;;;;;;4990683;28;20485;-81
2022/08/31 12:01:01;;;;;;;5.27;1.33;;;30.60;1.00;;;;;;4977327;28;20469;-80
2022/08/31 12:04:02;;;;;;;7.17;1.67;;;28.70;1.00;;;;;;4991287;28;21407;-80
2022/08/31 12:07:03;;;;;;;7.20;1.53;;;27.80;1.00;;;;;;4992767;28;20474;-81
2022/08/31 12:10:06;;;;;;;5.40;1.30;;;27.10;1.00;;;;;;4994674;28;20470;-80
2022/08/31 12:12:54;;;;;;;9.07;2.07;;;26.50;1.00;;;;;;4985509;28;20859;-80
2022/08/31 12:15:29;;;;;;;5.80;1.20;;;26.10;1.00;;;;;;5000375;28;20425;-80
2022/08/31 12:18:18;;;;;;;11.10;6.60;;;25.60;1.00;;;;;;4991095;28;20452;-82
2022/08/31 12:24:02;;;;;;;7.05;2.15;;;25.80;1.00;;;;;;4995545;28;20932;-82
2022/08/31 12:26:51;;;;;;;6.57;1.30;;;28.00;1.00;;;;;;4993883;28;20243;-81
2022/08/31 12:29:24;;;;;;;7.87;1.40;;;29.40;1.00;;;;;;4996494;28;20478;-81
2022/08/31 12:32:20;;;;;;;6.17;1.33;;;29.10;1.00;;;;;;4995113;28;20537;-80
2022/08/31 12:34:51;;;;;;;4.80;1.00;;;28.30;1.00;;;;;;4995185;28;20465;-82
2022/08/31 12:37:29;;;;;;;8.43;1.47;;;27.60;1.00;;;;;;4998891;28;20419;-80
2022/08/31 12:40:20;;;;;;;5.43;1.53;;;27.20;1.00;;;;;;4999434;28;20442;-82
2022/08/31 12:43:01;;;;;;;5.97;1.30;;;26.90;1.00;;;;;;5000149;28;20473;-80
2022/08/31 12:45:54;;;;;;;5.90;1.53;;;26.80;1.00;;;;;;5000157;28;20941;-81
2022/08/31 12:48:34;;;;;;;6.20;1.33;;;26.70;1.00;;;;;;4998792;28;20462;-80
2022/08/31 12:51:11;;;;;;;4.97;1.00;;;27.60;1.00;;;;;;5001411;28;20529;-81
2022/08/31 12:54:03;;;;;;;6.10;1.17;;;29.90;1.00;;;;;;4996578;28;20465;-81
2022/08/31 12:56:41;;;;;;;5.13;1.53;;;32.10;1.00;;;;;;4968966;28;20474;-80
2022/08/31 12:59:20;;;;;;;7.83;1.93;;;32.90;1.00;;;;;;5016334;28;20462;-80
2022/08/31 13:01:49;;;;;;;5.10;1.63;;;33.90;1.00;;;;;;5013659;28;20465;-81
2022/08/31 13:04:21;;;;;;;4.60;1.20;;;35.10;1.00;;;;;;5017885;28;20586;-80
2022/08/31 13:06:50;;;;;;;6.67;1.73;;;35.00;1.00;;;;;;5007764;28;20461;-79
2022/08/31 13:09:27;;;;;;;5.73;1.07;;;33.80;1.00;;;;;;5017084;28;20485;-80
2022/08/31 13:11:58;;;;;;;5.90;1.57;;;31.90;1.00;;;;;;5012821;28;20471;-80
2022/08/31 13:14:27;;;;;;;5.57;1.47;;;30.30;1.00;;;;;;5014231;28;20450;-80
2022/08/31 13:16:59;;;;;;;6.13;1.83;;;29.00;1.00;;;;;;5021775;28;20486;-82
2022/08/31 13:19:31;;;;;;;6.80;1.77;;;28.20;1.00;;;;;;5020563;28;20483;-83
2022/08/31 13:22:04;;;;;;;5.70;1.50;;;27.70;1.00;;;;;;5020212;28;20477;-83
2022/08/31 13:24:39;;;;;;;6.73;1.40;;;27.40;1.00;;;;;;5021845;28;21021;-82
2022/08/31 13:27:26;;;;;;;5.93;1.43;;;27.00;1.00;;;;;;5020392;28;20437;-82
2022/08/31 13:30:17;;;;;;;8.07;1.40;;;26.80;1.00;;;;;;5026039;28;20424;-82
2022/08/31 13:35:35;;;;;;;5.40;1.00;;;27.80;1.00;;;;;;5032281;28;20441;-82
2022/08/31 13:38:41;;;;;;;6.83;1.50;;;30.00;1.00;;;;;;5024463;28;20494;-81
2022/08/31 13:41:20;;;;;;;7.30;1.93;;;31.90;1.00;;;;;;5023889;28;20418;-79
2022/08/31 13:46:27;;;;;;;6.80;1.20;;;34.10;1.00;;;;;;4989654;28;20447;-83
2022/08/31 13:49:41;;;;;;;5.23;1.77;;;34.70;1.00;;;;;;4999394;28;20434;-83
2022/08/31 13:55:40;;;;;;;7.83;1.93;;;32.00;1.00;;;;;;4987963;28;20485;-81
2022/08/31 13:58:24;;;;;;;4.53;1.27;;;30.30;1.00;;;;;;4984010;28;20464;-81
2022/08/31 14:01:23;;;;;;;5.30;1.20;;;30.40;1.00;;;;;;4990686;28;20463;-83
2022/08/31 14:03:58;;;;;;;5.53;2.70;;;30.40;1.00;;;;;;4977060;28;20416;-82
2022/08/31 14:06:28;;;;;;;5.90;2.67;;;30.70;1.00;;;;;;4982553;28;21077;-80
2022/08/31 14:09:02;;;;;;;5.10;1.43;;;31.00;1.00;;;;;;4968484;28;20464;-79
2022/08/31 14:11:29;;;;;;;4.83;1.23;;;30.90;1.00;;;;;;4975401;28;20468;-79
2022/08/31 14:14:04;;;;;;;7.03;1.93;;;30.60;1.00;;;;;;4970732;28;20467;-81
2022/08/31 14:16:35;;;;;;;8.07;1.60;;;30.00;1.00;;;;;;4971755;28;20480;-81
2022/08/31 14:19:04;;;;;;;5.67;1.67;;;29.40;1.00;;;;;;4973536;28;20504;-83
2022/08/31 14:21:42;;;;;;;5.20;1.20;;;29.40;1.00;;;;;;4982642;28;20486;-82
2022/08/31 14:24:19;;;;;;;8.03;3.73;;;29.30;1.00;;;;;;4983005;28;20467;-81
2022/08/31 14:26:59;;;;;;;5.70;1.43;;;29.20;1.00;;;;;;4974707;28;20456;-81